Time;durP1;ratioP1;P1;durP2;ratioP2;P2;SDS_P1;SDS_P2;PMS_P1;PMS_P2;Temp;Humidity;BMP_temperature;BMP_pressure;BME280_temperature;BME280_humidity;BME280_pressure;Samples;Min_cycle;Max_cycle;Signal;HPM_P1;HPM_P2
2023/03/23 00:01:49;;;;;;;2.70;2.50;;;15.10;99.90;;;;;;5055528;28;20474;-77
2023/03/23 00:04:17;;;;;;;2.90;1.87;;;15.20;99.90;;;;;;5054284;28;20467;-77
2023/03/23 00:06:45;;;;;;;2.20;1.90;;;15.10;99.90;;;;;;5059912;28;20505;-79
2023/03/23 00:09:15;;;;;;;2.27;2.13;;;15.10;99.90;;;;;;5066501;28;20491;-76
2023/03/23 00:11:43;;;;;;;2.30;2.10;;;15.10;99.90;;;;;;5060587;28;20463;-77
2023/03/23 00:14:12;;;;;;;2.73;2.30;;;15.10;99.90;;;;;;5061519;28;20474;-80
2023/03/23 00:16:42;;;;;;;2.87;2.67;;;15.00;99.90;;;;;;5066227;28;20467;-76
2023/03/23 00:19:12;;;;;;;3.43;2.30;;;15.00;99.90;;;;;;5054202;28;20478;-76
2023/03/23 00:21:43;;;;;;;2.57;2.37;;;14.90;99.90;;;;;;5055600;28;20557;-79
2023/03/23 00:24:15;;;;;;;2.77;1.97;;;15.00;99.90;;;;;;5054244;28;20477;-77
2023/03/23 00:26:44;;;;;;;4.10;2.07;;;15.00;99.90;;;;;;5054407;28;20505;-80
2023/03/23 00:29:15;;;;;;;3.43;2.60;;;15.00;99.90;;;;;;5054472;28;20953;-79
2023/03/23 00:31:46;;;;;;;2.40;2.20;;;14.90;99.90;;;;;;5055020;28;20478;-76
2023/03/23 00:34:19;;;;;;;2.23;2.13;;;14.90;99.90;;;;;;5054246;28;20989;-78
2023/03/23 00:36:47;;;;;;;2.47;2.23;;;14.90;99.90;;;;;;5054786;28;20472;-76
2023/03/23 00:39:17;;;;;;;2.90;2.30;;;14.90;99.90;;;;;;5053777;28;20463;-76
2023/03/23 00:41:44;;;;;;;2.33;2.13;;;14.90;99.90;;;;;;5055090;28;20520;-79
2023/03/23 00:44:16;;;;;;;2.07;1.87;;;14.90;99.90;;;;;;5054023;28;20471;-80
2023/03/23 00:46:44;;;;;;;2.53;2.33;;;14.90;99.90;;;;;;5052282;28;20474;-80
2023/03/23 00:49:13;;;;;;;2.30;1.97;;;14.80;99.90;;;;;;5053383;28;20979;-80
2023/03/23 00:51:40;;;;;;;2.60;2.40;;;14.80;99.90;;;;;;5053806;28;20534;-77
2023/03/23 00:54:07;;;;;;;2.20;2.00;;;14.80;99.90;;;;;;5054214;28;20495;-79
2023/03/23 00:56:37;;;;;;;3.30;2.17;;;14.80;99.90;;;;;;5060567;28;20485;-79
2023/03/23 00:59:04;;;;;;;3.23;2.50;;;14.80;99.90;;;;;;5057058;28;20491;-78
2023/03/23 01:01:31;;;;;;;2.60;2.40;;;14.70;99.90;;;;;;5053666;28;20462;-75
2023/03/23 01:04:00;;;;;;;2.80;2.23;;;14.70;99.90;;;;;;5053746;28;20856;-79
2023/03/23 01:06:30;;;;;;;3.67;2.00;;;14.70;99.90;;;;;;5052085;28;20506;-76
2023/03/23 01:08:57;;;;;;;2.10;2.00;;;14.70;99.90;;;;;;5053392;28;20471;-76
2023/03/23 01:11:25;;;;;;;3.93;2.73;;;14.70;99.90;;;;;;5052814;28;20486;-76
2023/03/23 01:13:53;;;;;;;2.40;2.20;;;14.60;99.90;;;;;;5056213;28;20475;-79
2023/03/23 01:16:21;;;;;;;4.20;2.20;;;14.60;99.90;;;;;;5053629;28;20525;-77
2023/03/23 01:18:48;;;;;;;3.40;2.40;;;14.60;99.90;;;;;;5048992;28;20487;-78
2023/03/23 01:21:19;;;;;;;3.57;1.90;;;14.50;99.90;;;;;;5052950;28;20459;-76
2023/03/23 01:23:46;;;;;;;2.00;1.50;;;14.50;99.90;;;;;;5053525;28;20523;-76
2023/03/23 01:26:15;;;;;;;2.40;2.20;;;14.50;99.90;;;;;;5033136;28;20460;-79
2023/03/23 01:28:42;;;;;;;2.13;1.90;;;14.50;99.90;;;;;;5033315;28;20482;-76
2023/03/23 01:31:13;;;;;;;2.33;2.13;;;14.40;99.90;;;;;;5033886;28;20865;-79
2023/03/23 01:33:41;;;;;;;2.03;1.83;;;14.40;99.90;;;;;;5033413;28;20459;-76
2023/03/23 01:36:12;;;;;;;2.10;1.90;;;14.40;99.90;;;;;;5033070;28;20464;-76
2023/03/23 01:38:39;;;;;;;4.60;2.40;;;14.40;99.90;;;;;;5035984;28;20949;-79
2023/03/23 01:41:06;;;;;;;3.10;2.50;;;14.30;99.90;;;;;;5053621;28;20973;-79
2023/03/23 01:43:33;;;;;;;3.10;2.30;;;14.30;99.90;;;;;;5052512;28;20467;-79
2023/03/23 01:46:00;;;;;;;1.97;1.60;;;14.30;99.90;;;;;;5053415;28;20517;-75
2023/03/23 01:48:33;;;;;;;2.13;1.90;;;14.30;99.90;;;;;;5033497;28;20537;-79
2023/03/23 01:51:05;;;;;;;2.67;2.50;;;14.30;99.90;;;;;;5033172;28;20488;-79
2023/03/23 01:53:38;;;;;;;2.90;2.33;;;14.30;99.90;;;;;;5032448;28;20487;-79
2023/03/23 01:56:07;;;;;;;3.20;2.25;;;14.30;99.90;;;;;;5047870;28;20649;-75
2023/03/23 01:58:37;;;;;;;3.70;2.30;;;14.30;99.90;;;;;;5052262;28;20229;-78
2023/03/23 02:01:07;;;;;;;2.60;2.00;;;14.30;99.90;;;;;;5053094;28;20467;-76
2023/03/23 02:03:38;;;;;;;2.90;2.37;;;14.20;99.90;;;;;;5043096;28;20941;-80
2023/03/23 02:06:05;;;;;;;3.07;2.60;;;14.30;99.90;;;;;;5053030;28;20793;-79
2023/03/23 02:08:34;;;;;;;2.20;2.00;;;14.20;99.90;;;;;;5052052;28;20503;-76
2023/03/23 02:11:02;;;;;;;2.73;2.53;;;14.20;99.90;;;;;;5052797;28;20521;-79
2023/03/23 02:13:29;;;;;;;2.37;2.10;;;14.20;99.90;;;;;;5050026;28;20991;-79
2023/03/23 02:16:07;;;;;;;2.60;2.40;;;14.30;99.90;;;;;;5052296;28;20536;-77
2023/03/23 02:18:49;;;;;;;4.97;2.77;;;14.30;99.90;;;;;;5051447;28;20475;-80
2023/03/23 02:21:45;;;;;;;4.23;2.70;;;14.30;99.90;;;;;;5052266;28;20471;-80
2023/03/23 02:24:45;;;;;;;4.40;2.00;;;14.20;99.90;;;;;;5052054;28;20964;-80
2023/03/23 02:27:18;;;;;;;3.23;2.30;;;14.20;99.90;;;;;;5050989;28;20490;-76
2023/03/23 02:30:00;;;;;;;2.63;2.10;;;14.20;99.90;;;;;;5052567;28;20463;-79
2023/03/23 02:32:59;;;;;;;3.70;2.60;;;14.20;99.90;;;;;;5054438;28;20530;-75
2023/03/23 02:35:33;;;;;;;2.60;2.23;;;14.20;99.90;;;;;;5018945;28;20467;-76
2023/03/23 02:38:05;;;;;;;2.63;2.13;;;14.20;99.90;;;;;;5032497;28;20524;-79
2023/03/23 02:40:39;;;;;;;1.87;1.77;;;14.20;99.90;;;;;;5055133;28;20517;-76
2023/03/23 02:43:09;;;;;;;3.77;2.50;;;14.30;99.90;;;;;;5060191;28;20467;-76
2023/03/23 02:45:38;;;;;;;3.47;3.17;;;14.30;99.90;;;;;;5062773;28;20447;-76
2023/03/23 02:48:07;;;;;;;4.00;3.40;;;14.30;99.90;;;;;;5056357;28;20490;-75
2023/03/23 02:50:38;;;;;;;3.23;2.93;;;14.40;99.90;;;;;;5052276;28;20451;-75
2023/03/23 02:53:08;;;;;;;2.77;2.57;;;14.30;99.90;;;;;;5052282;28;21026;-75
2023/03/23 02:55:41;;;;;;;2.83;2.63;;;14.40;99.90;;;;;;5044675;28;20510;-80
2023/03/23 02:58:09;;;;;;;3.43;3.23;;;14.40;99.90;;;;;;5066601;28;20532;-79
2023/03/23 03:00:36;;;;;;;2.67;2.27;;;14.50;99.90;;;;;;5072175;28;20886;-82
2023/03/23 03:03:06;;;;;;;3.10;2.90;;;14.40;99.90;;;;;;5072304;28;20462;-77
2023/03/23 03:05:43;;;;;;;2.57;2.37;;;14.50;99.90;;;;;;5052155;28;20465;-77
2023/03/23 03:08:23;;;;;;;2.33;2.20;;;14.50;99.90;;;;;;5052127;28;20475;-81
2023/03/23 03:10:54;;;;;;;3.10;2.20;;;14.50;99.90;;;;;;5052543;28;20463;-81
2023/03/23 03:13:31;;;;;;;4.43;2.47;;;14.50;99.90;;;;;;5051249;28;20455;-77
2023/03/23 03:16:03;;;;;;;3.80;2.40;;;14.50;99.90;;;;;;5050975;28;20948;-77
2023/03/23 03:18:33;;;;;;;3.03;2.47;;;14.60;99.90;;;;;;5052312;28;20483;-77
2023/03/23 03:21:06;;;;;;;3.10;2.87;;;14.60;99.90;;;;;;5053043;28;20976;-78
2023/03/23 03:23:35;;;;;;;3.00;2.50;;;14.60;99.90;;;;;;5052399;28;20540;-81
2023/03/23 03:26:04;;;;;;;6.23;3.93;;;14.60;99.90;;;;;;5051823;28;20813;-78
2023/03/23 03:28:33;;;;;;;2.80;2.23;;;14.60;99.90;;;;;;5051934;28;20471;-77
2023/03/23 03:31:05;;;;;;;3.57;2.07;;;14.60;99.90;;;;;;5051553;28;20487;-78
2023/03/23 03:33:33;;;;;;;2.93;2.50;;;14.60;99.90;;;;;;5053476;28;20463;-77
2023/03/23 03:36:04;;;;;;;2.80;2.50;;;14.60;99.90;;;;;;5051485;28;20976;-77
2023/03/23 03:38:31;;;;;;;2.47;2.27;;;14.50;99.90;;;;;;5054168;28;20463;-75
2023/03/23 03:40:59;;;;;;;2.87;2.10;;;14.60;99.90;;;;;;5055760;28;20799;-75
2023/03/23 03:43:26;;;;;;;3.50;2.40;;;14.60;99.90;;;;;;5055243;28;20502;-76
2023/03/23 03:45:53;;;;;;;2.33;2.10;;;14.60;99.90;;;;;;5055206;28;20532;-76
2023/03/23 03:48:20;;;;;;;7.63;5.60;;;14.60;99.90;;;;;;5054547;28;20502;-76
2023/03/23 03:50:47;;;;;;;4.37;3.30;;;14.60;99.90;;;;;;5054920;28;20567;-76
2023/03/23 03:53:15;;;;;;;3.27;2.17;;;14.60;99.90;;;;;;5054465;28;20503;-75
2023/03/23 03:55:48;;;;;;;3.60;2.63;;;14.60;99.90;;;;;;5052530;28;20549;-76
2023/03/23 03:58:15;;;;;;;3.27;3.00;;;14.50;99.90;;;;;;5053207;28;20470;-76
2023/03/23 04:00:42;;;;;;;2.17;2.07;;;14.50;99.90;;;;;;5055380;28;20467;-76
2023/03/23 04:03:09;;;;;;;3.47;2.60;;;14.50;99.90;;;;;;5054638;28;20554;-75
2023/03/23 04:05:37;;;;;;;2.07;1.87;;;14.50;99.90;;;;;;5055332;28;20467;-75
2023/03/23 04:08:04;;;;;;;3.23;2.47;;;14.50;99.90;;;;;;5054357;28;20917;-77
2023/03/23 04:10:33;;;;;;;2.37;2.17;;;14.50;99.90;;;;;;5055358;28;20459;-79
2023/03/23 04:13:00;;;;;;;2.33;2.10;;;14.50;99.90;;;;;;5055264;28;20467;-76
2023/03/23 04:15:27;;;;;;;2.57;2.37;;;14.40;99.90;;;;;;5054671;28;20497;-80
2023/03/23 04:17:56;;;;;;;4.03;2.20;;;14.40;99.90;;;;;;5055200;28;20459;-80
2023/03/23 04:20:24;;;;;;;2.50;2.13;;;14.40;99.90;;;;;;5054705;28;20975;-80
2023/03/23 04:22:54;;;;;;;2.17;1.97;;;14.40;99.90;;;;;;5055340;28;20471;-79
2023/03/23 04:25:22;;;;;;;1.90;1.80;;;14.40;99.90;;;;;;5054664;28;20463;-79
2023/03/23 04:27:53;;;;;;;2.60;2.40;;;14.30;99.90;;;;;;5055308;28;20536;-79
2023/03/23 04:30:21;;;;;;;2.17;1.90;;;14.30;99.90;;;;;;5054277;28;20474;-79
2023/03/23 04:32:51;;;;;;;1.93;1.83;;;14.30;99.90;;;;;;5054739;28;20550;-76
2023/03/23 04:35:20;;;;;;;2.93;2.00;;;14.30;99.90;;;;;;5054589;28;20530;-79
2023/03/23 04:37:48;;;;;;;1.83;1.73;;;14.30;99.90;;;;;;5054985;28;20475;-76
2023/03/23 04:40:16;;;;;;;2.40;2.20;;;14.30;99.90;;;;;;5053867;28;20231;-76
2023/03/23 04:42:46;;;;;;;2.60;2.40;;;14.30;99.90;;;;;;5055305;28;20471;-79
2023/03/23 04:45:21;;;;;;;2.20;2.00;;;14.30;99.90;;;;;;5054731;28;20808;-79
2023/03/23 04:47:52;;;;;;;2.33;2.00;;;14.20;99.90;;;;;;5054780;28;20486;-79
2023/03/23 04:50:23;;;;;;;2.27;2.07;;;14.20;99.90;;;;;;5053480;28;20469;-79
2023/03/23 04:52:51;;;;;;;1.80;1.70;;;14.20;99.90;;;;;;5055226;28;20814;-76
2023/03/23 04:55:20;;;;;;;2.00;1.90;;;14.20;99.90;;;;;;5054427;28;20518;-80
2023/03/23 04:57:47;;;;;;;2.97;2.67;;;14.20;99.90;;;;;;5054869;28;20467;-79
2023/03/23 05:00:17;;;;;;;2.60;2.40;;;14.10;99.90;;;;;;5054249;28;20471;-79
2023/03/23 05:02:51;;;;;;;2.50;2.30;;;14.10;99.90;;;;;;5054925;28;20531;-79
2023/03/23 05:05:19;;;;;;;2.50;2.20;;;14.10;99.90;;;;;;5053635;28;20474;-76
2023/03/23 05:07:46;;;;;;;2.27;2.07;;;14.10;99.90;;;;;;5054603;28;20526;-76
2023/03/23 05:10:13;;;;;;;1.90;1.80;;;14.10;99.90;;;;;;5053234;28;20467;-77
2023/03/23 05:12:41;;;;;;;2.37;2.17;;;14.10;99.90;;;;;;5054342;28;20459;-76
2023/03/23 05:15:09;;;;;;;4.87;2.47;;;14.10;99.90;;;;;;5058213;28;20524;-79
2023/03/23 05:17:38;;;;;;;2.90;2.67;;;14.00;99.90;;;;;;5063461;28;20455;-76
2023/03/23 05:20:08;;;;;;;2.90;2.40;;;14.00;99.90;;;;;;5061541;28;20529;-79
2023/03/23 05:22:36;;;;;;;2.93;2.70;;;14.00;99.90;;;;;;5058128;28;20459;-76
2023/03/23 05:25:03;;;;;;;5.53;2.77;;;14.00;99.90;;;;;;5042997;28;20521;-75
2023/03/23 05:27:32;;;;;;;4.00;3.60;;;14.00;99.90;;;;;;5053398;28;20471;-76
2023/03/23 05:30:01;;;;;;;3.03;2.77;;;13.90;99.90;;;;;;5053949;28;20811;-81
2023/03/23 05:32:30;;;;;;;2.57;2.37;;;13.90;99.90;;;;;;5053153;28;20474;-80
2023/03/23 05:35:00;;;;;;;3.37;3.07;;;13.90;99.90;;;;;;5053801;28;20471;-77
2023/03/23 05:37:31;;;;;;;2.77;2.50;;;13.90;99.90;;;;;;5052946;28;20884;-76
2023/03/23 05:40:04;;;;;;;2.80;2.60;;;13.90;99.90;;;;;;5053487;28;20478;-77
2023/03/23 05:42:32;;;;;;;2.67;2.43;;;13.80;99.90;;;;;;5053196;28;20873;-77
2023/03/23 05:45:00;;;;;;;3.13;2.50;;;13.80;99.90;;;;;;5053314;28;20600;-76
2023/03/23 05:47:27;;;;;;;2.80;2.50;;;13.80;99.90;;;;;;5052752;28;20802;-77
2023/03/23 05:49:54;;;;;;;3.15;2.85;;;13.70;99.90;;;;;;5053542;28;20463;-76
2023/03/23 05:52:23;;;;;;;3.10;2.80;;;13.70;99.90;;;;;;5051442;28;20225;-77
2023/03/23 05:54:50;;;;;;;2.63;2.43;;;13.60;99.90;;;;;;5053486;28;20956;-76
2023/03/23 05:57:18;;;;;;;2.50;2.30;;;13.60;99.90;;;;;;5053357;28;20497;-76
2023/03/23 05:59:45;;;;;;;3.67;2.30;;;13.60;99.90;;;;;;5052760;28;20550;-77
2023/03/23 06:02:13;;;;;;;3.73;3.30;;;13.60;99.90;;;;;;5052928;28;20278;-76
2023/03/23 06:04:40;;;;;;;5.63;2.83;;;13.60;99.90;;;;;;5052503;28;20674;-76
2023/03/23 06:07:12;;;;;;;2.83;2.53;;;13.60;99.90;;;;;;5053182;28;20557;-76
2023/03/23 06:09:41;;;;;;;3.00;2.73;;;13.60;99.90;;;;;;5052720;28;20471;-80
2023/03/23 06:12:11;;;;;;;4.20;2.33;;;13.60;99.90;;;;;;5052897;28;20478;-76
2023/03/23 06:14:38;;;;;;;3.88;2.95;;;13.60;99.90;;;;;;5052736;28;20744;-77
2023/03/23 06:17:06;;;;;;;4.20;2.80;;;13.60;99.90;;;;;;5052654;28;20555;-76
2023/03/23 06:19:34;;;;;;;3.35;2.22;;;13.60;99.90;;;;;;5052485;28;20224;-76
2023/03/23 06:22:01;;;;;;;5.13;2.20;;;13.50;99.90;;;;;;5052880;28;20558;-76
2023/03/23 06:24:28;;;;;;;3.03;2.78;;;13.50;99.90;;;;;;5052713;28;20562;-80
2023/03/23 06:26:57;;;;;;;5.10;3.25;;;13.40;99.90;;;;;;5053043;28;20289;-76
2023/03/23 06:29:24;;;;;;;21.52;17.52;;;13.50;99.90;;;;;;5051925;28;20283;-77
2023/03/23 06:31:55;;;;;;;5.53;4.85;;;13.50;99.90;;;;;;5052886;28;20240;-76
2023/03/23 06:34:22;;;;;;;4.40;3.80;;;13.50;99.90;;;;;;5053031;28;20694;-76
2023/03/23 06:36:50;;;;;;;3.35;2.83;;;13.50;99.90;;;;;;5052873;28;20621;-79
2023/03/23 06:39:17;;;;;;;10.77;7.95;;;13.50;99.90;;;;;;5053056;28;20238;-80
2023/03/23 06:41:44;;;;;;;8.60;6.50;;;13.50;99.90;;;;;;5052419;28;20235;-80
2023/03/23 06:44:14;;;;;;;6.50;5.55;;;13.50;99.90;;;;;;5052467;28;20224;-79
2023/03/23 06:46:41;;;;;;;5.97;4.78;;;13.50;99.90;;;;;;5052531;28;20231;-77
2023/03/23 06:49:08;;;;;;;7.47;5.05;;;13.50;99.90;;;;;;5052926;28;20224;-80
2023/03/23 06:51:36;;;;;;;4.35;3.95;;;13.50;99.90;;;;;;5052351;28;20225;-80
2023/03/23 06:54:03;;;;;;;6.50;5.65;;;13.60;99.90;;;;;;5053019;28;20670;-80
2023/03/23 06:56:37;;;;;;;4.85;3.65;;;13.60;99.90;;;;;;5042173;28;20259;-80
2023/03/23 06:59:04;;;;;;;4.38;3.97;;;13.60;99.90;;;;;;5051605;28;20227;-80
2023/03/23 07:01:33;;;;;;;4.80;4.15;;;13.50;99.90;;;;;;5052766;28;20221;-80
2023/03/23 07:04:00;;;;;;;3.80;3.40;;;13.60;99.90;;;;;;5052581;28;20219;-77
2023/03/23 07:06:27;;;;;;;5.38;3.45;;;13.50;99.90;;;;;;5052487;28;20506;-80
2023/03/23 07:08:54;;;;;;;4.00;3.00;;;13.60;99.90;;;;;;5052146;28;20244;-76
2023/03/23 07:11:21;;;;;;;4.83;3.80;;;13.60;99.90;;;;;;5052360;28;20239;-76
2023/03/23 07:13:49;;;;;;;6.22;3.40;;;13.50;99.90;;;;;;5055038;28;20467;-79
2023/03/23 07:16:17;;;;;;;5.00;3.60;;;13.50;99.90;;;;;;5056484;28;20232;-76
2023/03/23 07:18:45;;;;;;;3.15;2.53;;;13.50;99.90;;;;;;5055664;28;20482;-76
2023/03/23 07:21:12;;;;;;;4.38;3.50;;;13.50;99.90;;;;;;5056380;28;20232;-77
2023/03/23 07:23:39;;;;;;;4.47;4.13;;;13.50;99.90;;;;;;5055020;28;20286;-77
2023/03/23 07:26:07;;;;;;;4.72;3.58;;;13.50;99.90;;;;;;5056098;28;20263;-76
2023/03/23 07:28:36;;;;;;;3.30;3.00;;;13.50;99.90;;;;;;5056077;28;20232;-80
2023/03/23 07:31:03;;;;;;;2.70;2.50;;;13.50;99.90;;;;;;5055311;28;20466;-79
2023/03/23 07:33:31;;;;;;;6.47;2.63;;;13.50;99.90;;;;;;5056511;28;20225;-80
2023/03/23 07:36:01;;;;;;;13.27;9.18;;;13.50;99.90;;;;;;5054983;28;20220;-76
2023/03/23 07:38:29;;;;;;;3.20;2.50;;;13.60;99.90;;;;;;5048913;28;20275;-80
2023/03/23 07:40:57;;;;;;;4.90;2.90;;;13.60;99.90;;;;;;5055120;28;20511;-76
2023/03/23 07:43:25;;;;;;;2.70;2.50;;;13.50;99.90;;;;;;5055635;28;20478;-76
2023/03/23 07:46:08;;;;;;;9.70;7.13;;;13.50;99.90;;;;;;5043781;28;20467;-80
2023/03/23 07:48:35;;;;;;;5.23;2.83;;;13.60;99.90;;;;;;5056506;28;20475;-82
2023/03/23 07:51:03;;;;;;;2.00;1.90;;;13.60;99.90;;;;;;5056023;28;20463;-75
2023/03/23 07:53:30;;;;;;;3.17;2.40;;;13.60;99.90;;;;;;5056733;28;20263;-78
2023/03/23 07:55:57;;;;;;;3.63;2.90;;;13.60;99.90;;;;;;5057616;28;20501;-81
2023/03/23 07:58:25;;;;;;;3.70;3.40;;;13.60;99.90;;;;;;5055862;28;20248;-80
2023/03/23 08:00:53;;;;;;;4.07;2.87;;;13.60;99.90;;;;;;5055334;28;20471;-79
2023/03/23 08:03:20;;;;;;;4.20;2.60;;;13.70;99.90;;;;;;5056093;28;20466;-80
2023/03/23 08:05:47;;;;;;;2.65;2.40;;;13.70;99.90;;;;;;5055695;28;20471;-80
2023/03/23 08:08:16;;;;;;;5.90;2.50;;;13.70;99.90;;;;;;5054382;28;20232;-80
2023/03/23 08:10:44;;;;;;;2.70;1.90;;;13.80;99.90;;;;;;5055054;28;20255;-80
2023/03/23 08:13:11;;;;;;;5.87;5.30;;;13.70;99.90;;;;;;5054760;28;20609;-80
2023/03/23 08:15:39;;;;;;;3.77;3.00;;;13.70;99.90;;;;;;5055474;28;20467;-80
2023/03/23 08:18:06;;;;;;;3.87;3.50;;;13.70;99.90;;;;;;5054504;28;20479;-81
2023/03/23 08:20:33;;;;;;;4.57;3.37;;;13.70;99.90;;;;;;5056075;28;20541;-80
2023/03/23 08:23:02;;;;;;;3.73;3.33;;;13.70;99.90;;;;;;5054778;28;20965;-79
2023/03/23 08:25:31;;;;;;;5.80;3.90;;;13.70;99.90;;;;;;5053251;28;20953;-81
2023/03/23 08:28:01;;;;;;;4.50;2.80;;;13.70;99.90;;;;;;5054932;28;20482;-80
2023/03/23 08:30:30;;;;;;;3.30;2.90;;;13.70;99.90;;;;;;5055061;28;20472;-80
2023/03/23 08:32:58;;;;;;;5.25;2.85;;;13.70;99.90;;;;;;5054814;28;20870;-81
2023/03/23 08:35:26;;;;;;;6.77;3.73;;;13.70;99.90;;;;;;5054137;28;20235;-80
2023/03/23 08:37:54;;;;;;;3.50;3.20;;;13.70;99.90;;;;;;5021528;28;20468;-80
2023/03/23 08:40:23;;;;;;;6.17;3.80;;;13.70;99.90;;;;;;5033352;28;20452;-80
2023/03/23 08:42:53;;;;;;;4.23;3.57;;;13.60;99.90;;;;;;5033020;28;20468;-81
2023/03/23 08:45:22;;;;;;;7.63;5.93;;;13.60;99.90;;;;;;5032815;28;20460;-81
2023/03/23 08:47:51;;;;;;;4.63;4.23;;;13.70;99.90;;;;;;5033418;28;20499;-81
2023/03/23 08:50:22;;;;;;;6.30;4.43;;;13.80;99.90;;;;;;5032935;28;20468;-80
2023/03/23 08:52:50;;;;;;;5.80;4.77;;;13.70;99.90;;;;;;5033638;28;20506;-80
2023/03/23 08:55:18;;;;;;;7.03;3.60;;;13.80;99.90;;;;;;5034581;28;20535;-79
2023/03/23 08:57:45;;;;;;;10.07;9.07;;;13.80;99.90;;;;;;5034803;28;20804;-80
2023/03/23 09:00:17;;;;;;;14.43;11.40;;;13.80;99.90;;;;;;5023957;28;20534;-79
2023/03/23 09:02:45;;;;;;;7.22;6.25;;;13.90;99.90;;;;;;5024359;28;20221;-80
2023/03/23 09:05:13;;;;;;;6.23;4.97;;;13.90;99.90;;;;;;5033659;28;20315;-80
2023/03/23 09:07:41;;;;;;;3.97;3.67;;;13.90;99.90;;;;;;5034265;28;20526;-77
2023/03/23 09:10:10;;;;;;;3.03;2.83;;;14.00;99.90;;;;;;5033162;28;20472;-77
2023/03/23 09:12:37;;;;;;;3.33;3.03;;;14.00;99.90;;;;;;5033762;28;20471;-76
2023/03/23 09:15:08;;;;;;;6.27;4.30;;;14.10;99.90;;;;;;5033310;28;20468;-76
2023/03/23 09:17:37;;;;;;;4.70;3.77;;;14.10;99.90;;;;;;5034095;28;20547;-81
2023/03/23 09:20:10;;;;;;;6.00;3.90;;;14.10;99.90;;;;;;5034403;28;21004;-76
2023/03/23 09:22:38;;;;;;;5.00;4.03;;;14.10;99.90;;;;;;5033437;28;20460;-76
2023/03/23 09:25:06;;;;;;;5.60;4.73;;;14.10;99.90;;;;;;5033773;28;20475;-77
2023/03/23 09:27:38;;;;;;;9.60;7.10;;;14.10;99.90;;;;;;5032844;28;20488;-76
2023/03/23 09:30:07;;;;;;;3.60;3.20;;;14.20;99.90;;;;;;5033364;28;20464;-76
2023/03/23 09:32:36;;;;;;;3.07;2.77;;;14.30;99.90;;;;;;5033289;28;20463;-76
2023/03/23 09:35:06;;;;;;;7.73;6.30;;;14.30;99.90;;;;;;5033269;28;20475;-77
2023/03/23 09:37:35;;;;;;;6.37;3.70;;;14.40;99.90;;;;;;5032749;28;20858;-77
2023/03/23 09:40:03;;;;;;;4.20;3.50;;;14.50;99.90;;;;;;5032929;28;20472;-76
2023/03/23 09:42:42;;;;;;;3.53;3.20;;;14.60;99.90;;;;;;5032854;28;20468;-76
2023/03/23 09:45:20;;;;;;;3.57;2.97;;;14.60;99.90;;;;;;5033425;28;20463;-76
2023/03/23 09:47:58;;;;;;;3.30;3.00;;;14.70;99.90;;;;;;5032868;28;20503;-76
2023/03/23 09:50:32;;;;;;;3.83;3.33;;;14.80;99.90;;;;;;5032356;28;20467;-77
2023/03/23 09:53:03;;;;;;;8.23;7.40;;;14.90;99.90;;;;;;5033255;28;20555;-77
2023/03/23 09:55:30;;;;;;;6.30;5.70;;;14.90;99.90;;;;;;5032780;28;20563;-77
2023/03/23 09:58:00;;;;;;;7.53;6.73;;;14.90;99.90;;;;;;5032898;28;20499;-77
2023/03/23 10:00:33;;;;;;;7.43;6.73;;;14.90;99.90;;;;;;5032552;28;20958;-77
2023/03/23 10:03:08;;;;;;;5.00;4.50;;;15.00;99.90;;;;;;5033208;28;20559;-77
2023/03/23 10:05:49;;;;;;;3.93;3.60;;;15.00;99.90;;;;;;5034271;28;20558;-76
2023/03/23 10:08:18;;;;;;;4.97;3.50;;;15.00;99.90;;;;;;5032980;28;20587;-77
2023/03/23 10:10:58;;;;;;;4.13;3.40;;;15.10;99.90;;;;;;5032669;28;20463;-76
2023/03/23 10:13:50;;;;;;;3.73;3.33;;;15.20;99.90;;;;;;5033366;28;20463;-77
2023/03/23 10:16:20;;;;;;;2.10;2.00;;;15.20;99.90;;;;;;5033190;28;20992;-80
2023/03/23 10:19:11;;;;;;;2.43;2.23;;;15.20;99.90;;;;;;5106758;27;20557;-79
2023/03/23 10:21:42;;;;;;;2.77;2.20;;;15.30;99.90;;;;;;5091171;28;20792;-79
2023/03/23 10:24:11;;;;;;;4.17;1.83;;;15.20;99.90;;;;;;5094111;28;20461;-78
2023/03/23 10:26:47;;;;;;;2.23;1.77;;;15.30;99.90;;;;;;5094826;28;20464;-78
2023/03/23 10:29:20;;;;;;;5.43;2.33;;;15.20;99.90;;;;;;5092042;28;20477;-80
2023/03/23 10:31:56;;;;;;;5.90;5.27;;;15.40;99.90;;;;;;5090935;28;21170;-81
2023/03/23 10:34:31;;;;;;;9.03;4.50;;;15.40;99.90;;;;;;5090233;28;20461;-81
2023/03/23 10:37:04;;;;;;;5.33;2.97;;;15.50;99.90;;;;;;5090381;28;20466;-76
2023/03/23 10:39:40;;;;;;;5.73;4.97;;;15.50;99.90;;;;;;5089988;28;20560;-80
2023/03/23 10:42:07;;;;;;;4.03;3.60;;;15.50;99.90;;;;;;5090390;28;20475;-76
2023/03/23 10:44:38;;;;;;;3.07;2.07;;;15.70;99.90;;;;;;5110661;27;20461;-80
2023/03/23 10:47:13;;;;;;;3.33;2.60;;;15.70;99.90;;;;;;5101297;27;20530;-80
2023/03/23 10:49:46;;;;;;;2.93;2.10;;;15.70;99.90;;;;;;5109509;27;20547;-76
2023/03/23 10:52:26;;;;;;;2.17;1.97;;;15.80;99.90;;;;;;5110298;27;20536;-76
2023/03/23 10:54:58;;;;;;;5.90;2.80;;;15.80;99.90;;;;;;5110977;27;20540;-80
2023/03/23 10:57:28;;;;;;;4.20;3.37;;;15.90;99.90;;;;;;5109828;27;20979;-80
2023/03/23 11:00:05;;;;;;;5.87;4.93;;;15.90;99.90;;;;;;5110520;27;20477;-75
2023/03/23 11:02:38;;;;;;;2.90;2.23;;;16.00;99.90;;;;;;5097529;28;20445;-79
2023/03/23 11:05:16;;;;;;;4.77;4.30;;;16.00;99.90;;;;;;5090347;28;20472;-80
2023/03/23 11:07:50;;;;;;;3.73;2.80;;;16.10;99.90;;;;;;5090731;28;20963;-79
2023/03/23 11:10:23;;;;;;;5.43;2.93;;;16.00;99.90;;;;;;5089367;28;20901;-76
2023/03/23 11:12:52;;;;;;;9.80;6.90;;;16.10;99.90;;;;;;5090205;28;20493;-80
2023/03/23 11:15:39;;;;;;;4.73;2.70;;;16.10;99.90;;;;;;5109993;27;20449;-80
2023/03/23 11:18:10;;;;;;;6.53;5.93;;;16.10;99.90;;;;;;5108980;27;20508;-75
2023/03/23 11:20:42;;;;;;;3.50;3.20;;;16.10;99.90;;;;;;5110652;27;20853;-76
2023/03/23 11:23:14;;;;;;;3.03;2.40;;;16.10;99.90;;;;;;5109933;27;20926;-79
2023/03/23 11:26:00;;;;;;;3.00;2.70;;;16.20;99.90;;;;;;5111519;27;21015;-75
2023/03/23 11:28:31;;;;;;;5.80;4.70;;;16.30;99.90;;;;;;5107525;27;20471;-76
2023/03/23 11:31:00;;;;;;;7.40;6.20;;;16.20;99.90;;;;;;5089002;28;20476;-76
2023/03/23 11:33:31;;;;;;;5.87;5.10;;;16.30;99.90;;;;;;5097929;28;20495;-80
2023/03/23 11:36:00;;;;;;;5.90;2.57;;;16.30;99.90;;;;;;5099669;28;20495;-75
2023/03/23 11:38:28;;;;;;;2.03;1.83;;;16.40;99.90;;;;;;5095843;28;20457;-76
2023/03/23 11:40:56;;;;;;;6.63;1.90;;;16.30;99.90;;;;;;5096050;28;20469;-76
2023/03/23 11:43:26;;;;;;;7.33;3.93;;;16.40;99.90;;;;;;5095112;28;20943;-76
2023/03/23 11:46:03;;;;;;;3.10;2.80;;;16.50;99.90;;;;;;5096173;28;20496;-80
2023/03/23 11:48:39;;;;;;;6.20;4.57;;;16.50;99.90;;;;;;5095457;28;20492;-80
2023/03/23 11:51:14;;;;;;;3.73;2.80;;;16.60;99.90;;;;;;5094515;28;20575;-77
2023/03/23 11:53:48;;;;;;;5.70;5.07;;;16.60;99.90;;;;;;5096002;28;20805;-76
2023/03/23 11:56:25;;;;;;;2.33;2.13;;;16.70;99.90;;;;;;5094959;28;20973;-76
2023/03/23 11:58:53;;;;;;;2.93;2.73;;;16.80;99.90;;;;;;5095747;28;20469;-79
2023/03/23 12:01:33;;;;;;;3.13;2.50;;;16.80;99.90;;;;;;5095147;27;20741;-76
2023/03/23 12:04:14;;;;;;;5.43;3.30;;;16.80;99.90;;;;;;5096015;28;20526;-80
2023/03/23 12:06:49;;;;;;;4.10;3.70;;;16.90;99.90;;;;;;5084109;28;20465;-80
2023/03/23 12:09:31;;;;;;;4.50;3.80;;;16.80;99.90;;;;;;5074753;28;20470;-78
2023/03/23 12:12:09;;;;;;;8.20;5.63;;;16.90;99.90;;;;;;5076380;28;20466;-80
2023/03/23 12:14:45;;;;;;;3.10;2.03;;;16.90;99.90;;;;;;5075270;28;20550;-79
2023/03/23 12:17:29;;;;;;;5.30;3.10;;;16.90;99.90;;;;;;5075125;28;20486;-79
2023/03/23 12:20:14;;;;;;;5.43;2.63;;;16.90;99.90;;;;;;5077399;28;20470;-80
2023/03/23 12:22:54;;;;;;;5.63;3.60;;;16.90;99.90;;;;;;5075610;28;20516;-80
2023/03/23 12:25:42;;;;;;;3.60;2.80;;;16.80;99.90;;;;;;5076388;28;20461;-79
2023/03/23 12:28:20;;;;;;;4.10;3.03;;;16.90;99.90;;;;;;5076485;28;20516;-79
2023/03/23 12:30:52;;;;;;;3.63;2.83;;;16.80;99.90;;;;;;5074421;28;21000;-80
2023/03/23 12:33:26;;;;;;;4.03;2.43;;;16.80;99.90;;;;;;5075582;28;20524;-79
2023/03/23 12:36:05;;;;;;;4.80;3.70;;;16.80;99.90;;;;;;5075635;28;20466;-79
2023/03/23 12:38:51;;;;;;;5.60;3.40;;;16.70;99.90;;;;;;5076270;28;20462;-79
2023/03/23 12:41:22;;;;;;;2.50;2.13;;;16.70;99.90;;;;;;5085545;28;20461;-80
2023/03/23 12:43:54;;;;;;;2.83;2.00;;;16.70;99.90;;;;;;5095106;28;20496;-80
2023/03/23 12:46:43;;;;;;;6.63;5.10;;;16.70;99.90;;;;;;5095012;28;20457;-79
2023/03/23 12:49:16;;;;;;;2.40;2.20;;;16.70;99.90;;;;;;5095088;28;20539;-80
2023/03/23 12:51:50;;;;;;;3.93;3.30;;;16.70;99.90;;;;;;5095062;28;20469;-79
2023/03/23 12:54:25;;;;;;;3.90;3.20;;;16.80;99.90;;;;;;5095225;28;20602;-80
2023/03/23 12:57:00;;;;;;;4.80;3.23;;;16.80;99.90;;;;;;5095292;28;20628;-80
2023/03/23 12:59:35;;;;;;;2.40;2.20;;;16.90;99.90;;;;;;5093518;28;20465;-79
2023/03/23 13:02:21;;;;;;;3.63;2.20;;;16.90;99.90;;;;;;5095260;28;20489;-80
2023/03/23 13:04:52;;;;;;;3.00;2.70;;;16.80;99.90;;;;;;5095484;28;20570;-80